Time,TemperatureF,DewpointF,PressureIn,WindDirection,WindDirectionDegrees,WindSpeedMPH,WindSpeedGustMPH,Humidity,HourlyPrecipIn,Conditions,Clouds,dailyrainin,SolarRadiationWatts/m^2,SoftwareType,DateUTC
2013-01-07 00:04:00,43.9,43.0,30.18,West,271,4.0,5.0,97,0.00,,,0.01,0,weatherlink.com 1.10,2013-01-07 08:04:00,
2013-01-07 00:19:00,44.1,43.0,30.18,West,271,3.0,5.0,97,0.00,,,0.01,0,weatherlink.com 1.10,2013-01-07 08:19:00,
2013-01-07 00:34:00,44.1,43.0,30.18,West,275,5.0,6.0,97,0.00,,,0.01,0,weatherlink.com 1.10,2013-01-07 08:34:00,
2013-01-07 00:49:00,44.2,43.0,30.18,West,265,5.0,6.0,97,0.00,,,0.01,0,weatherlink.com 1.10,2013-01-07 08:49:00,
2013-01-07 01:04:00,44.1,43.0,30.18,West,265,5.0,6.0,97,0.00,,,0.01,0,weatherlink.com 1.10,2013-01-07 09:04:00,
2013-01-07 01:19:00,43.8,43.0,30.18,West,267,4.0,6.0,97,0.00,,,0.01,0,weatherlink.com 1.10,2013-01-07 09:19:00,
2013-01-07 01:34:00,43.6,43.0,30.18,West,267,4.0,6.0,97,0.00,,,0.01,0,weatherlink.com 1.10,2013-01-07 09:34:00,
2013-01-07 01:49:00,43.4,43.0,30.18,West,269,3.0,5.0,97,0.00,,,0.00,0,weatherlink.com 1.10,2013-01-07 09:49:00,
2013-01-07 02:04:00,43.3,43.0,30.18,West,264,4.0,5.0,97,0.00,,,0.00,0,weatherlink.com 1.10,2013-01-07 10:04:00,
2013-01-07 02:19:00,43.2,42.0,30.18,West,263,3.0,4.0,97,0.00,,,0.00,0,weatherlink.com 1.10,2013-01-07 10:19:00,
2013-01-07 02:34:00,43.1,42.0,30.18,West,269,5.0,6.0,97,0.00,,,0.00,0,weatherlink.com 1.10,2013-01-07 10:34:00,
2013-01-07 02:49:00,43.2,42.0,30.19,West,278,5.0,6.0,97,0.00,,,0.00,0,weatherlink.com 1.10,2013-01-07 10:49:00,
2013-01-07 03:04:00,43.1,42.0,30.20,West,279,6.0,6.0,97,0.00,,,0.00,0,weatherlink.com 1.10,2013-01-07 11:04:00,
2013-01-07 03:19:00,43.0,42.0,30.20,West,277,5.0,7.0,97,0.00,,,0.00,0,weatherlink.com 1.10,2013-01-07 11:19:00,
2013-01-07 03:34:00,43.1,42.0,30.20,West,266,6.0,7.0,97,0.00,,,0.00,0,weatherlink.com 1.10,2013-01-07 11:34:00,
2013-01-07 03:49:00,43.1,42.0,30.20,West,259,2.0,6.0,96,0.00,,,0.00,0,weatherlink.com 1.10,2013-01-07 11:49:00,
2013-01-07 04:04:00,43.0,42.0,30.19,West,271,1.0,3.0,96,0.00,,,0.00,0,weatherlink.com 1.10,2013-01-07 12:04:00,
2013-01-07 04:19:00,42.6,42.0,30.19,West,271,2.0,3.0,96,0.00,,,0.00,0,weatherlink.com 1.10,2013-01-07 12:19:00,
2013-01-07 04:34:00,42.1,41.0,30.20,West,269,2.0,5.0,96,0.00,,,0.00,0,weatherlink.com 1.10,2013-01-07 12:34:00,
2013-01-07 04:49:00,42.5,42.0,30.20,West,268,3.0,4.0,96,0.00,,,0.00,0,weatherlink.com 1.10,2013-01-07 12:49:00,
2013-01-07 05:04:00,42.2,41.0,30.19,West,268,0.0,3.0,96,0.00,,,0.00,0,weatherlink.com 1.10,2013-01-07 13:04:00,
2013-01-07 05:19:00,41.7,41.0,30.18,West,268,2.0,3.0,96,0.00,,,0.00,0,weatherlink.com 1.10,2013-01-07 13:19:00,
2013-01-07 05:34:00,42.2,41.0,30.18,West,273,3.0,5.0,96,0.00,,,0.00,0,weatherlink.com 1.10,2013-01-07 13:34:00,
2013-01-07 05:49:00,42.5,42.0,30.19,West,279,1.0,5.0,96,0.00,,,0.00,0,weatherlink.com 1.10,2013-01-07 13:49:00,
2013-01-07 06:04:00,42.4,41.0,30.19,West,277,0.0,3.0,96,0.00,,,0.00,0,weatherlink.com 1.10,2013-01-07 14:04:00,
2013-01-07 06:19:00,42.1,41.0,30.20,West,277,0.0,0.0,96,0.00,,,0.00,0,weatherlink.com 1.10,2013-01-07 14:19:00,
2013-01-07 06:34:00,41.3,40.0,30.20,West,277,1.0,3.0,95,0.00,,,0.00,0,weatherlink.com 1.10,2013-01-07 14:34:00,
2013-01-07 06:49:00,40.6,39.0,30.20,West,277,1.0,2.0,95,0.00,,,0.00,0,weatherlink.com 1.10,2013-01-07 14:49:00,
2013-01-07 07:04:00,40.1,39.0,30.20,West,277,0.0,2.0,95,0.00,,,0.00,0,weatherlink.com 1.10,2013-01-07 15:04:00,
2013-01-07 07:19:00,40.2,39.0,30.21,West,277,0.0,2.0,96,0.00,,,0.00,5,weatherlink.com 1.10,2013-01-07 15:19:00,
2013-01-07 07:34:00,40.6,40.0,30.21,West,277,0.0,1.0,96,0.00,,,0.00,7,weatherlink.com 1.10,2013-01-07 15:34:00,
2013-01-07 07:49:00,40.5,40.0,30.23,West,277,0.0,2.0,96,0.00,,,0.00,16,weatherlink.com 1.10,2013-01-07 15:49:00,
2013-01-07 08:04:00,40.4,39.0,30.22,West,277,2.0,3.0,96,0.00,,,0.00,21,weatherlink.com 1.10,2013-01-07 16:04:00,
2013-01-07 08:17:00,40.4,39.4,30.22,West,277,0.0,3.0,96,0.00,,,0.00,28,Wunderground v.1.15,2013-01-07 16:17:00,
2013-01-07 08:23:00,40.4,39.4,30.23,West,277,0.0,3.0,96,0.00,,,0.00,37,Wunderground v.1.15,2013-01-07 16:23:00,
2013-01-07 08:29:00,40.5,39.4,30.22,West,277,0.0,3.0,96,0.00,,,0.00,46,Wunderground v.1.15,2013-01-07 16:29:00,
2013-01-07 08:34:00,40.7,39.9,30.21,West,277,0.0,3.0,97,0.00,,,0.00,42,Wunderground v.1.15,2013-01-07 16:34:00,
2013-01-07 08:40:00,40.8,39.7,30.22,West,277,0.0,3.0,96,0.00,,,0.00,46,Wunderground v.1.15,2013-01-07 16:40:00,
2013-01-07 08:49:00,41.0,40.0,30.24,West,277,0.0,0.0,96,0.00,,,0.00,51,weatherlink.com 1.10,2013-01-07 16:49:00,
2013-01-07 09:05:00,41.3,41.0,30.24,West,277,0.0,0.0,97,0.00,,,0.00,76,weatherlink.com 1.10,2013-01-07 17:05:00,
2013-01-07 09:20:00,42.0,41.0,30.26,West,277,2.0,3.0,97,0.00,,,0.00,84,weatherlink.com 1.10,2013-01-07 17:20:00,
2013-01-07 09:35:00,42.9,42.0,30.25,West,277,0.0,1.0,97,0.00,,,0.00,51,weatherlink.com 1.10,2013-01-07 17:35:00,
2013-01-07 09:50:00,43.2,42.0,30.25,West,277,1.0,1.0,97,0.00,,,0.00,58,weatherlink.com 1.10,2013-01-07 17:50:00,
2013-01-07 10:05:00,43.9,43.0,30.25,West,277,1.0,2.0,97,0.00,,,0.00,81,weatherlink.com 1.10,2013-01-07 18:05:00,
2013-01-07 10:20:00,45.1,44.0,30.25,West,276,1.0,3.0,96,0.00,,,0.00,109,weatherlink.com 1.10,2013-01-07 18:20:00,
2013-01-07 10:35:00,46.1,45.0,30.26,West,269,3.0,5.0,94,0.00,,,0.00,58,weatherlink.com 1.10,2013-01-07 18:35:00,
2013-01-07 10:50:00,47.2,45.0,30.26,West,269,3.0,6.0,90,0.00,,,0.00,44,weatherlink.com 1.10,2013-01-07 18:50:00,
2013-01-07 11:05:00,48.4,45.0,30.25,West,260,1.0,5.0,88,0.00,,,0.00,69,weatherlink.com 1.10,2013-01-07 19:05:00,
2013-01-07 11:20:00,49.0,45.0,30.23,West,261,1.0,3.0,86,0.00,,,0.00,487,weatherlink.com 1.10,2013-01-07 19:20:00,
2013-01-07 11:35:00,49.7,45.0,30.22,West,261,1.0,2.0,84,0.00,,,0.00,446,weatherlink.com 1.10,2013-01-07 19:35:00,
2013-01-07 11:50:00,51.3,46.0,30.22,West,261,3.0,6.0,81,0.00,,,0.00,494,weatherlink.com 1.10,2013-01-07 19:50:00,
2013-01-07 12:05:00,51.7,46.0,30.21,West,270,4.0,7.0,81,0.00,,,0.00,348,weatherlink.com 1.10,2013-01-07 20:05:00,
2013-01-07 12:20:00,52.1,46.0,30.21,West,277,2.0,7.0,79,0.00,,,0.00,74,weatherlink.com 1.10,2013-01-07 20:20:00,
2013-01-07 12:35:00,52.3,46.0,30.20,West,264,5.0,8.0,78,0.00,,,0.00,54,weatherlink.com 1.10,2013-01-07 20:35:00,
2013-01-07 12:50:00,52.4,45.0,30.20,West,265,4.0,10.0,77,0.00,,,0.00,62,weatherlink.com 1.10,2013-01-07 20:50:00,
2013-01-07 13:05:00,52.7,45.0,30.19,West,264,0.0,6.0,76,0.00,,,0.00,63,weatherlink.com 1.10,2013-01-07 21:05:00,
2013-01-07 13:20:00,53.1,46.0,30.19,West,263,2.0,4.0,77,0.00,,,0.00,77,weatherlink.com 1.10,2013-01-07 21:20:00,
2013-01-07 13:35:00,53.5,46.0,30.19,WSW,258,1.0,4.0,77,0.00,,,0.00,63,weatherlink.com 1.10,2013-01-07 21:35:00,
2013-01-07 13:50:00,53.9,47.0,30.18,WSW,255,1.0,3.0,77,0.00,,,0.00,97,weatherlink.com 1.10,2013-01-07 21:50:00,
2013-01-07 14:05:00,54.2,47.0,30.18,West,272,1.0,5.0,77,0.00,,,0.00,95,weatherlink.com 1.10,2013-01-07 22:05:00,
2013-01-07 14:20:00,54.7,47.0,30.18,West,271,1.0,6.0,76,0.00,,,0.00,109,weatherlink.com 1.10,2013-01-07 22:20:00,
2013-01-07 14:35:00,54.9,48.0,30.18,West,268,3.0,5.0,77,0.00,,,0.00,104,weatherlink.com 1.10,2013-01-07 22:35:00,
2013-01-07 14:50:00,55.0,48.0,30.18,West,269,0.0,1.0,77,0.00,,,0.00,95,weatherlink.com 1.10,2013-01-07 22:50:00,
2013-01-07 15:05:00,55.1,48.0,30.18,West,269,0.0,2.0,77,0.00,,,0.00,79,weatherlink.com 1.10,2013-01-07 23:05:00,
2013-01-07 15:20:00,55.2,48.0,30.18,West,269,2.0,3.0,77,0.00,,,0.00,70,weatherlink.com 1.10,2013-01-07 23:20:00,
2013-01-07 15:35:00,55.1,48.0,30.18,West,267,0.0,4.0,77,0.00,,,0.00,51,weatherlink.com 1.10,2013-01-07 23:35:00,
2013-01-07 15:50:00,54.9,48.0,30.17,West,265,2.0,3.0,77,0.00,,,0.00,44,weatherlink.com 1.10,2013-01-07 23:50:00,
2013-01-07 16:05:00,54.8,48.0,30.18,West,265,0.0,1.0,78,0.00,,,0.00,37,weatherlink.com 1.10,2013-01-08 00:05:00,
2013-01-07 16:20:00,54.5,48.0,30.18,West,265,0.0,1.0,78,0.00,,,0.00,25,weatherlink.com 1.10,2013-01-08 00:20:00,
2013-01-07 16:35:00,54.2,47.0,30.18,West,265,0.0,1.0,78,0.00,,,0.00,14,weatherlink.com 1.10,2013-01-08 00:35:00,
2013-01-07 16:50:00,53.8,47.0,30.18,West,265,0.0,1.0,79,0.00,,,0.00,5,weatherlink.com 1.10,2013-01-08 00:50:00,
2013-01-07 17:05:00,53.3,47.0,30.18,West,265,0.0,0.0,80,0.00,,,0.00,0,weatherlink.com 1.10,2013-01-08 01:05:00,
2013-01-07 17:20:00,52.7,47.0,30.18,West,265,0.0,0.0,81,0.00,,,0.00,0,weatherlink.com 1.10,2013-01-08 01:20:00,
2013-01-07 17:36:00,52.0,47.0,30.18,West,265,0.0,0.0,82,0.00,,,0.00,0,weatherlink.com 1.10,2013-01-08 01:36:00,
2013-01-07 17:50:00,51.4,46.0,30.18,West,265,0.0,0.0,83,0.00,,,0.00,0,weatherlink.com 1.10,2013-01-08 01:50:00,
2013-01-07 18:06:00,50.8,46.0,30.18,West,265,0.0,0.0,84,0.00,,,0.00,0,weatherlink.com 1.10,2013-01-08 02:06:00,
2013-01-07 18:20:00,50.1,46.0,30.18,West,265,0.0,1.0,86,0.00,,,0.00,0,weatherlink.com 1.10,2013-01-08 02:20:00,
2013-01-07 18:36:00,49.6,46.0,30.17,West,265,0.0,1.0,88,0.00,,,0.00,0,weatherlink.com 1.10,2013-01-08 02:36:00,
2013-01-07 18:51:00,49.1,46.0,30.17,West,265,1.0,1.0,89,0.00,,,0.00,0,weatherlink.com 1.10,2013-01-08 02:51:00,
2013-01-07 19:06:00,48.8,46.0,30.17,West,265,0.0,0.0,90,0.00,,,0.00,0,weatherlink.com 1.10,2013-01-08 03:06:00,
2013-01-07 19:21:00,48.4,46.0,30.18,West,265,0.0,2.0,90,0.00,,,0.00,0,weatherlink.com 1.10,2013-01-08 03:21:00,
2013-01-07 19:36:00,48.0,46.0,30.18,West,265,0.0,1.0,91,0.00,,,0.00,0,weatherlink.com 1.10,2013-01-08 03:36:00,
2013-01-07 19:51:00,47.7,45.0,30.18,West,265,0.0,0.0,91,0.00,,,0.00,0,weatherlink.com 1.10,2013-01-08 03:51:00,
2013-01-07 20:06:00,47.4,45.0,30.18,West,265,0.0,0.0,91,0.00,,,0.00,0,weatherlink.com 1.10,2013-01-08 04:06:00,
2013-01-07 20:21:00,47.0,45.0,30.18,West,265,0.0,0.0,91,0.00,,,0.00,0,weatherlink.com 1.10,2013-01-08 04:21:00,
2013-01-07 20:36:00,46.8,45.0,30.19,West,265,0.0,0.0,92,0.00,,,0.00,0,weatherlink.com 1.10,2013-01-08 04:36:00,
2013-01-07 20:51:00,46.6,44.0,30.19,West,265,0.0,0.0,92,0.00,,,0.00,0,weatherlink.com 1.10,2013-01-08 04:51:00,
2013-01-07 21:21:00,46.2,44.0,30.19,West,265,0.0,1.0,93,0.00,,,0.00,0,weatherlink.com 1.10,2013-01-08 05:21:00,
2013-01-07 21:36:00,45.8,44.0,30.19,West,265,0.0,1.0,93,0.00,,,0.00,0,weatherlink.com 1.10,2013-01-08 05:36:00,
2013-01-07 21:51:00,45.6,44.0,30.18,West,265,0.0,0.0,93,0.00,,,0.00,0,weatherlink.com 1.10,2013-01-08 05:51:00,
2013-01-07 22:06:00,45.4,44.0,30.18,West,265,0.0,1.0,93,0.00,,,0.00,0,weatherlink.com 1.10,2013-01-08 06:06:00,
2013-01-07 22:21:00,45.4,44.0,30.18,West,265,0.0,0.0,94,0.00,,,0.00,0,weatherlink.com 1.10,2013-01-08 06:21:00,
2013-01-07 22:36:00,45.6,44.0,30.18,West,265,1.0,2.0,95,0.00,,,0.00,0,weatherlink.com 1.10,2013-01-08 06:36:00,
2013-01-07 22:51:00,45.7,44.0,30.18,West,265,0.0,1.0,95,0.00,,,0.00,0,weatherlink.com 1.10,2013-01-08 06:51:00,
2013-01-07 23:06:00,45.6,44.0,30.19,West,265,0.0,0.0,95,0.00,,,0.00,0,weatherlink.com 1.10,2013-01-08 07:06:00,
2013-01-07 23:21:00,45.5,44.0,30.19,West,265,1.0,2.0,95,0.00,,,0.00,0,weatherlink.com 1.10,2013-01-08 07:21:00,
2013-01-07 23:36:00,45.5,44.0,30.19,West,265,0.0,2.0,95,0.00,,,0.00,0,weatherlink.com 1.10,2013-01-08 07:36:00,
2013-01-07 23:51:00,45.2,44.0,30.19,West,265,0.0,1.0,94,0.00,,,0.00,0,weatherlink.com 1.10,2013-01-08 07:51:00,